Time;durP1;ratioP1;P1;durP2;ratioP2;P2;SDS_P1;SDS_P2;PMS_P1;PMS_P2;Temp;Humidity;BMP_temperature;BMP_pressure;BME280_temperature;BME280_humidity;BME280_pressure;Samples;Min_cycle;Max_cycle;Signal;HPM_P1;HPM_P2
2022/01/22 01:49:14;;;;;;;4.83;1.40;;;5.60;99.90;;;;;;5013786;28;20224;-93
2022/01/22 01:51:58;;;;;;;5.50;1.60;;;5.60;99.90;;;;;;5013548;28;20206;-93
2022/01/22 01:59:56;;;;;;;2.10;1.80;;;5.50;99.90;;;;;;5130217;23;20252;-93
2022/01/22 02:02:32;;;;;;;2.07;1.80;;;5.40;99.90;;;;;;5034749;28;20283;-93
2022/01/22 02:05:08;;;;;;;2.90;1.60;;;5.40;99.90;;;;;;5031476;28;20227;-93
2022/01/22 02:07:42;;;;;;;3.53;1.80;;;5.40;99.90;;;;;;5013771;28;20280;-94
2022/01/22 02:10:20;;;;;;;3.93;2.20;;;5.30;99.90;;;;;;5028543;28;20688;-95
2022/01/22 02:24:23;;;;;;;3.07;2.40;;;5.20;99.90;;;;;;5030242;28;20217;-92
2022/01/22 02:26:56;;;;;;;3.93;2.40;;;5.10;99.90;;;;;;5028538;28;20206;-93
2022/01/22 02:29:28;;;;;;;4.13;2.30;;;5.10;99.90;;;;;;5013398;28;20261;-92
2022/01/22 02:32:16;;;;;;;3.27;1.97;;;5.10;99.90;;;;;;5030440;28;20277;-93
2022/01/22 02:35:18;;;;;;;3.20;2.23;;;5.10;99.90;;;;;;5030583;28;20205;-92
2022/01/22 02:37:57;;;;;;;4.27;2.40;;;5.00;99.90;;;;;;5014099;28;20263;-93
2022/01/22 02:40:34;;;;;;;4.67;2.70;;;5.00;99.90;;;;;;5028666;28;20205;-92
2022/01/22 02:43:06;;;;;;;3.13;2.20;;;4.90;99.90;;;;;;5028924;28;20233;-93
2022/01/22 02:45:38;;;;;;;3.70;2.30;;;4.80;99.90;;;;;;5029731;28;20210;-93
2022/01/22 02:48:10;;;;;;;4.03;2.90;;;4.80;99.90;;;;;;5027176;28;20206;-92
2022/01/22 02:50:42;;;;;;;6.20;3.10;;;4.80;99.90;;;;;;5029540;28;20219;-92
2022/01/22 02:53:17;;;;;;;3.43;3.13;;;4.70;99.90;;;;;;5029113;28;20209;-93
2022/01/22 02:55:48;;;;;;;3.20;2.63;;;4.70;99.90;;;;;;5029458;28;20209;-92
2022/01/22 02:58:21;;;;;;;5.53;3.10;;;4.70;99.90;;;;;;5023685;28;20225;-92
2022/01/22 03:00:54;;;;;;;3.20;2.90;;;4.60;99.90;;;;;;5027664;28;20290;-93
2022/01/22 03:03:26;;;;;;;7.43;4.00;;;4.60;99.90;;;;;;5027511;28;20217;-93
2022/01/22 03:05:58;;;;;;;8.80;3.33;;;4.60;99.90;;;;;;5029672;28;20202;-93
2022/01/22 03:08:32;;;;;;;4.47;3.47;;;4.60;99.90;;;;;;5037268;28;20224;-93
2022/01/22 03:11:16;;;;;;;7.80;3.93;;;4.50;99.90;;;;;;5049745;28;20208;-93
2022/01/22 03:16:51;;;;;;;5.97;3.87;;;4.50;99.90;;;;;;5046901;28;20240;-92
2022/01/22 03:19:44;;;;;;;4.70;4.17;;;4.40;99.90;;;;;;5048331;28;20255;-93
2022/01/22 03:27:30;;;;;;;11.07;6.10;;;4.30;99.90;;;;;;5033038;28;20232;-93
2022/01/22 03:30:02;;;;;;;7.67;6.20;;;4.30;99.90;;;;;;5029528;28;20201;-93
2022/01/22 03:32:38;;;;;;;7.50;5.63;;;4.30;99.90;;;;;;5027252;28;20237;-93
2022/01/22 03:35:23;;;;;;;8.77;6.20;;;4.20;99.90;;;;;;5034490;28;20229;-93
2022/01/22 03:37:58;;;;;;;13.33;6.83;;;4.20;99.90;;;;;;5030632;28;20297;-91
2022/01/22 03:40:30;;;;;;;13.93;7.50;;;4.20;99.90;;;;;;5010609;28;20209;-92
2022/01/22 03:43:06;;;;;;;13.50;8.37;;;4.10;99.90;;;;;;5027548;28;20201;-92
2022/01/22 03:45:38;;;;;;;9.80;6.97;;;4.20;99.90;;;;;;5031384;28;20212;-93
2022/01/22 03:48:09;;;;;;;9.93;7.13;;;4.10;99.90;;;;;;5032346;28;20205;-93
2022/01/22 03:50:41;;;;;;;11.13;7.47;;;4.10;99.90;;;;;;5033626;28;20209;-93
2022/01/22 03:53:12;;;;;;;11.03;7.73;;;4.10;99.90;;;;;;5034219;28;20212;-93
2022/01/22 03:55:51;;;;;;;13.07;8.60;;;4.10;99.90;;;;;;5035177;28;20206;-92
2022/01/22 03:58:25;;;;;;;14.33;8.50;;;4.00;99.90;;;;;;5015242;28;20225;-93
2022/01/22 04:01:16;;;;;;;12.80;8.20;;;4.00;99.90;;;;;;5033623;28;20569;-91
2022/01/22 04:03:55;;;;;;;11.23;7.47;;;4.00;99.90;;;;;;5032030;28;20237;-93
2022/01/22 04:09:15;;;;;;;9.43;7.33;;;4.00;99.90;;;;;;5030710;28;20686;-91
2022/01/22 04:11:48;;;;;;;12.03;8.30;;;4.00;99.90;;;;;;5032030;28;20213;-93
2022/01/22 04:14:31;;;;;;;10.40;7.77;;;4.00;99.90;;;;;;5038047;28;20205;-93
2022/01/22 04:17:20;;;;;;;14.00;7.90;;;4.00;99.90;;;;;;5025635;28;20311;-94
2022/01/22 04:25:29;;;;;;;8.10;7.10;;;4.00;99.90;;;;;;5039727;28;20236;-93
2022/01/22 04:28:01;;;;;;;11.07;7.10;;;3.90;99.90;;;;;;5039678;28;20206;-91
2022/01/22 04:30:35;;;;;;;6.70;5.60;;;3.90;99.90;;;;;;5039885;28;20214;-93
2022/01/22 04:40:56;;;;;;;8.70;4.93;;;3.80;99.90;;;;;;4939055;29;20261;-92
2022/01/22 04:43:30;;;;;;;9.90;5.50;;;3.80;99.90;;;;;;4940899;29;20209;-93
2022/01/22 04:49:05;;;;;;;7.90;4.77;;;3.70;99.90;;;;;;4940234;29;20223;-92
2022/01/22 04:57:13;;;;;;;4.80;4.00;;;3.70;99.90;;;;;;4928098;29;20236;-92
2022/01/22 04:59:44;;;;;;;5.67;4.27;;;3.70;99.90;;;;;;4930745;29;20307;-93
2022/01/22 05:02:18;;;;;;;5.23;4.17;;;3.70;99.90;;;;;;4929080;29;20285;-93
2022/01/22 05:04:49;;;;;;;7.17;4.47;;;3.70;99.90;;;;;;4923448;29;20591;-94
2022/01/22 05:07:20;;;;;;;7.70;4.50;;;3.60;99.90;;;;;;4935004;29;20206;-92
2022/01/22 05:09:51;;;;;;;7.73;5.13;;;3.60;99.90;;;;;;4930508;29;20658;-93
2022/01/22 05:12:22;;;;;;;8.80;5.53;;;3.60;99.90;;;;;;4935529;29;20213;-94
2022/01/22 05:14:53;;;;;;;19.43;5.47;;;3.60;99.90;;;;;;4940420;29;20197;-91
2022/01/22 05:17:27;;;;;;;10.33;6.63;;;3.60;99.90;;;;;;4936737;28;20229;-92
2022/01/22 05:20:04;;;;;;;10.40;7.27;;;3.60;99.90;;;;;;4929798;29;20315;-93
2022/01/22 05:22:51;;;;;;;9.27;7.17;;;3.50;99.90;;;;;;4926704;29;20217;-93
2022/01/22 05:25:29;;;;;;;9.33;6.87;;;3.50;99.90;;;;;;4925756;29;20260;-93
2022/01/22 05:28:16;;;;;;;13.80;6.87;;;3.50;99.90;;;;;;4925008;29;20331;-94
2022/01/22 05:31:00;;;;;;;9.13;6.13;;;3.40;99.90;;;;;;4927962;29;20213;-92
2022/01/22 05:36:56;;;;;;;9.50;5.63;;;3.40;99.90;;;;;;4926428;29;20213;-92
2022/01/22 05:39:14;;;;;;;8.07;5.87;;;3.30;99.90;;;;;;4955553;28;20235;-95
2022/01/22 05:41:45;;;;;;;8.20;5.97;;;3.30;99.90;;;;;;5121820;23;20229;-88
2022/01/22 05:44:17;;;;;;;8.57;6.07;;;3.20;99.90;;;;;;5018656;28;20202;-94
2022/01/22 05:46:48;;;;;;;9.03;6.80;;;3.20;99.90;;;;;;5036510;28;20247;-94
2022/01/22 05:49:23;;;;;;;9.87;7.80;;;3.20;99.90;;;;;;5036783;28;20260;-93
2022/01/22 05:51:56;;;;;;;9.83;7.83;;;3.20;99.90;;;;;;5034373;28;20236;-94
2022/01/22 06:00:09;;;;;;;11.37;7.43;;;3.10;99.90;;;;;;5034163;28;20212;-94
2022/01/22 06:02:41;;;;;;;7.67;6.60;;;3.10;99.90;;;;;;5035726;28;20213;-95
2022/01/22 06:05:20;;;;;;;10.97;7.73;;;3.10;99.90;;;;;;5036977;28;20205;-92
2022/01/22 06:07:51;;;;;;;13.30;8.73;;;3.10;99.90;;;;;;5039535;28;20208;-94
2022/01/22 06:10:28;;;;;;;9.80;7.23;;;3.10;99.90;;;;;;5056995;28;20197;-94
2022/01/22 06:13:11;;;;;;;12.77;7.87;;;3.10;99.90;;;;;;5058161;28;20265;-94
2022/01/22 06:15:42;;;;;;;24.20;8.33;;;3.10;99.90;;;;;;5057650;28;20212;-92
2022/01/22 06:18:13;;;;;;;18.80;8.03;;;3.10;99.90;;;;;;5056130;28;20213;-92
2022/01/22 06:20:47;;;;;;;78.33;9.60;;;3.10;99.90;;;;;;5039604;28;20196;-92
2022/01/22 06:23:18;;;;;;;140.53;10.53;;;3.10;99.90;;;;;;5053804;28;20208;-92
2022/01/22 06:25:49;;;;;;;103.87;11.20;;;3.20;99.90;;;;;;5044687;28;20236;-91
2022/01/22 06:28:20;;;;;;;113.37;11.13;;;3.20;99.90;;;;;;5025044;28;20204;-92
2022/01/22 06:30:51;;;;;;;70.83;8.53;;;3.20;99.90;;;;;;5007423;28;20674;-93
2022/01/22 06:33:22;;;;;;;78.23;8.13;;;3.20;99.90;;;;;;5022779;28;20206;-92
2022/01/22 06:35:55;;;;;;;44.67;7.47;;;3.20;99.90;;;;;;5020844;28;20206;-93
2022/01/22 06:38:27;;;;;;;28.27;6.97;;;3.10;99.90;;;;;;5020077;28;20284;-93
2022/01/22 06:43:45;;;;;;;8.90;6.47;;;3.00;99.90;;;;;;5021253;28;20221;-93
2022/01/22 06:46:17;;;;;;;10.53;7.33;;;3.00;99.90;;;;;;5019577;28;20212;-94
2022/01/22 06:48:47;;;;;;;10.93;6.53;;;3.00;99.90;;;;;;5019320;28;20263;-93
2022/01/22 06:51:22;;;;;;;6.90;5.07;;;3.00;99.90;;;;;;5019362;28;20210;-93
2022/01/22 06:53:54;;;;;;;8.43;5.57;;;2.90;99.90;;;;;;5021400;28;20216;-93
2022/01/22 06:56:25;;;;;;;7.37;5.40;;;2.90;99.90;;;;;;5017947;28;20217;-94
2022/01/22 06:58:56;;;;;;;8.03;5.30;;;2.90;99.90;;;;;;5019728;28;20265;-93
2022/01/22 07:01:29;;;;;;;7.03;5.33;;;2.90;99.90;;;;;;5018502;28;20201;-93
2022/01/22 07:04:00;;;;;;;7.70;6.03;;;2.90;99.90;;;;;;5023779;28;20244;-93
2022/01/22 07:06:35;;;;;;;6.93;5.60;;;2.90;99.90;;;;;;5018168;28;20206;-93
2022/01/22 07:09:06;;;;;;;7.17;5.93;;;2.90;99.90;;;;;;5018886;28;20209;-93
2022/01/22 07:11:37;;;;;;;9.13;6.23;;;2.90;99.90;;;;;;5017773;28;20244;-92
2022/01/22 07:16:43;;;;;;;8.67;6.23;;;3.00;99.90;;;;;;4996312;23;20230;-93
2022/01/22 07:19:18;;;;;;;8.47;6.63;;;3.00;99.90;;;;;;4980680;28;20269;-93
2022/01/22 07:21:59;;;;;;;7.27;5.97;;;2.90;99.90;;;;;;5066082;23;20245;-93
2022/01/22 07:24:37;;;;;;;8.63;6.27;;;2.90;99.90;;;;;;4994623;28;20624;-93
2022/01/22 07:27:08;;;;;;;9.43;6.77;;;2.90;99.90;;;;;;5002209;28;20229;-93
2022/01/22 07:29:40;;;;;;;24.47;7.57;;;2.90;99.90;;;;;;5009604;28;20281;-93
2022/01/22 07:32:17;;;;;;;15.93;7.27;;;2.90;99.90;;;;;;5003901;28;20318;-92
2022/01/22 07:34:49;;;;;;;71.07;8.83;;;2.90;99.90;;;;;;5007241;28;20203;-93
2022/01/22 07:37:22;;;;;;;94.07;9.20;;;2.90;99.90;;;;;;5006667;28;20202;-94
2022/01/22 07:39:53;;;;;;;80.87;9.00;;;2.90;99.90;;;;;;5003547;28;20668;-92
2022/01/22 07:42:24;;;;;;;22.87;7.83;;;2.90;99.90;;;;;;5008674;28;20233;-95
2022/01/22 07:44:55;;;;;;;25.10;7.83;;;2.90;99.90;;;;;;4997630;28;20214;-93
2022/01/22 07:47:27;;;;;;;52.37;9.07;;;2.90;99.90;;;;;;5006317;28;20237;-93
2022/01/22 07:49:59;;;;;;;35.13;8.17;;;2.90;99.90;;;;;;5013412;28;20198;-92
2022/01/22 07:52:31;;;;;;;87.63;9.93;;;2.80;99.90;;;;;;4993048;28;20205;-93
2022/01/22 07:55:03;;;;;;;60.47;10.47;;;2.90;99.90;;;;;;5003806;28;20233;-92
2022/01/22 07:57:34;;;;;;;63.40;11.00;;;2.90;99.90;;;;;;4983013;28;20262;-93
2022/01/22 08:00:07;;;;;;;193.20;15.13;;;2.80;99.90;;;;;;5000132;28;20329;-93
2022/01/22 08:02:38;;;;;;;37.37;10.60;;;2.90;99.90;;;;;;5004560;28;20566;-92
2022/01/22 08:05:10;;;;;;;66.50;12.67;;;2.90;99.90;;;;;;5000422;28;20242;-93
2022/01/22 08:07:44;;;;;;;58.63;11.63;;;3.00;99.90;;;;;;5000040;28;20962;-93
2022/01/22 08:10:17;;;;;;;47.10;12.33;;;3.00;99.90;;;;;;5003701;28;20210;-93
2022/01/22 08:12:49;;;;;;;39.30;10.70;;;3.10;99.90;;;;;;5002146;28;20233;-93
2022/01/22 08:15:21;;;;;;;92.80;12.77;;;3.20;99.90;;;;;;5002455;28;20202;-94
2022/01/22 08:17:55;;;;;;;44.43;11.27;;;3.30;99.90;;;;;;4999776;28;20694;-94
2022/01/22 08:20:26;;;;;;;113.60;13.50;;;3.30;99.90;;;;;;4998193;28;20261;-92
2022/01/22 08:23:00;;;;;;;111.73;12.93;;;3.40;99.90;;;;;;5071387;23;20273;-92
2022/01/22 08:25:33;;;;;;;128.27;12.07;;;3.40;99.90;;;;;;5012038;28;20214;-92
2022/01/22 08:30:55;;;;;;;94.27;10.03;;;3.40;99.90;;;;;;5008005;28;20248;-93
2022/01/22 08:35:52;;;;;;;120.20;11.73;;;3.50;99.90;;;;;;5019500;28;20198;-94
2022/01/22 08:36:24;;;;;;;136.13;11.13;;;3.50;99.90;;;;;;5020059;28;20198;-96
2022/01/22 08:39:08;;;;;;;119.30;10.70;;;3.50;99.90;;;;;;5221111;23;20255;-93
2022/01/22 08:41:40;;;;;;;72.30;10.50;;;3.60;99.90;;;;;;5013656;28;20186;-93
2022/01/22 08:44:12;;;;;;;48.50;8.33;;;3.50;99.90;;;;;;5005571;28;20289;-94
2022/01/22 08:46:44;;;;;;;102.53;9.00;;;3.50;99.90;;;;;;5003495;28;20190;-93
2022/01/22 08:49:15;;;;;;;174.40;11.03;;;3.40;99.90;;;;;;4985170;28;20257;-93
2022/01/22 08:51:46;;;;;;;210.23;15.60;;;3.50;99.90;;;;;;5002026;28;20206;-93
2022/01/22 08:54:19;;;;;;;157.80;11.90;;;3.40;99.90;;;;;;5000303;28;20202;-93
2022/01/22 08:56:50;;;;;;;111.30;10.03;;;3.50;99.90;;;;;;4997846;28;20245;-93
2022/01/22 08:59:21;;;;;;;95.40;10.47;;;3.50;99.90;;;;;;4997762;28;20292;-92
2022/01/22 09:01:52;;;;;;;69.77;8.43;;;3.50;99.90;;;;;;4998018;28;20246;-93
2022/01/22 09:04:23;;;;;;;104.13;8.90;;;3.50;99.90;;;;;;4998237;28;20681;-93
2022/01/22 09:06:55;;;;;;;103.97;8.77;;;3.50;99.90;;;;;;4980985;28;20202;-92
2022/01/22 09:09:28;;;;;;;125.30;9.00;;;3.50;99.90;;;;;;5000780;28;20210;-94
2022/01/22 09:11:59;;;;;;;95.87;8.70;;;3.50;99.90;;;;;;4981082;28;20230;-93
2022/01/22 09:14:30;;;;;;;108.83;9.47;;;3.50;99.90;;;;;;4998359;28;20293;-92
2022/01/22 09:17:02;;;;;;;106.37;8.53;;;3.40;99.90;;;;;;5000491;28;20234;-95
2022/01/22 09:19:35;;;;;;;107.27;7.83;;;3.40;99.90;;;;;;5005020;28;20292;-92
2022/01/22 09:22:08;;;;;;;103.33;7.17;;;3.40;99.90;;;;;;4999700;28;20553;-91
2022/01/22 09:24:42;;;;;;;85.27;7.37;;;3.40;99.90;;;;;;4998150;28;20256;-92
2022/01/22 09:27:15;;;;;;;134.10;8.07;;;3.40;99.90;;;;;;4997548;28;20206;-93
2022/01/22 09:29:48;;;;;;;101.80;8.10;;;3.40;99.90;;;;;;4998360;28;20591;-92
2022/01/22 09:32:19;;;;;;;103.43;9.43;;;3.40;99.90;;;;;;4999634;28;20241;-92
2022/01/22 09:34:50;;;;;;;98.53;8.03;;;3.40;99.90;;;;;;4998032;28;20207;-92
2022/01/22 09:37:22;;;;;;;76.27;7.17;;;3.40;99.90;;;;;;4996781;28;20272;-92
2022/01/22 09:39:55;;;;;;;85.40;6.87;;;3.40;99.90;;;;;;4997962;28;20650;-94
2022/01/22 09:42:27;;;;;;;102.30;8.30;;;3.50;99.90;;;;;;5001179;28;20213;-94
2022/01/22 09:44:58;;;;;;;71.10;7.73;;;3.50;99.90;;;;;;4997395;28;20244;-95
2022/01/22 09:47:30;;;;;;;73.03;7.47;;;3.50;99.90;;;;;;4996751;28;20301;-92
2022/01/22 09:50:02;;;;;;;123.60;8.13;;;3.50;99.90;;;;;;4999239;28;20242;-93
2022/01/22 09:52:34;;;;;;;129.07;10.83;;;3.60;99.90;;;;;;5048236;23;20222;-91
2022/01/22 09:55:09;;;;;;;79.80;7.50;;;3.60;99.90;;;;;;5007273;28;20225;-93
2022/01/22 09:57:40;;;;;;;107.70;8.30;;;3.60;99.90;;;;;;4982327;28;20759;-92
2022/01/22 10:00:13;;;;;;;39.30;5.93;;;3.60;99.90;;;;;;4998959;28;20339;-92
2022/01/22 10:02:45;;;;;;;150.13;9.17;;;3.60;99.90;;;;;;5000441;28;20210;-93
2022/01/22 10:05:33;;;;;;;102.23;8.33;;;3.60;99.90;;;;;;4999619;28;20250;-93
2022/01/22 10:08:19;;;;;;;70.97;6.30;;;3.60;99.90;;;;;;4976203;28;20218;-93
2022/01/22 10:10:54;;;;;;;178.80;10.33;;;3.60;99.90;;;;;;4977463;28;20245;-94
2022/01/22 10:13:45;;;;;;;164.63;9.03;;;3.60;99.90;;;;;;4978656;28;20298;-92
2022/01/22 10:16:20;;;;;;;76.37;6.87;;;3.60;99.90;;;;;;4977883;28;20234;-94
2022/01/22 10:19:10;;;;;;;138.17;9.07;;;3.60;99.90;;;;;;4979561;28;20236;-94
2022/01/22 10:21:43;;;;;;;162.77;8.90;;;3.60;99.90;;;;;;4980332;28;20293;-94
2022/01/22 10:24:36;;;;;;;100.60;7.23;;;3.50;99.90;;;;;;4977917;28;20586;-94
2022/01/22 10:27:31;;;;;;;178.40;9.97;;;3.50;99.90;;;;;;4977974;28;20242;-93
2022/01/22 10:30:06;;;;;;;122.50;8.57;;;3.50;99.90;;;;;;4988164;28;20215;-94
2022/01/22 10:32:46;;;;;;;130.57;7.60;;;3.50;99.90;;;;;;4972308;28;20244;-93
2022/01/22 10:35:19;;;;;;;177.63;8.83;;;3.50;99.90;;;;;;4977937;28;20211;-93
2022/01/22 10:38:10;;;;;;;172.43;9.97;;;3.50;99.90;;;;;;4991920;28;20290;-94
2022/01/22 10:40:59;;;;;;;175.13;8.67;;;3.50;99.90;;;;;;5094683;27;1872557;-92
2022/01/22 10:43:32;;;;;;;101.77;7.23;;;3.50;99.90;;;;;;5135285;28;20240;-94
2022/01/22 10:46:10;;;;;;;162.97;9.83;;;3.40;99.90;;;;;;5139447;28;20206;-92
2022/01/22 10:48:43;;;;;;;153.27;8.73;;;3.40;99.90;;;;;;5150873;27;20227;-92
2022/01/22 10:51:16;;;;;;;302.83;14.53;;;3.40;99.90;;;;;;5155481;27;20202;-91
2022/01/22 10:53:49;;;;;;;428.30;18.43;;;3.40;99.90;;;;;;5153721;27;20194;-93
2022/01/22 10:56:24;;;;;;;469.23;18.93;;;3.40;99.90;;;;;;5148566;27;20263;-93
2022/01/22 10:58:59;;;;;;;265.73;12.40;;;3.40;99.90;;;;;;5153469;27;20197;-94
2022/01/22 11:01:32;;;;;;;314.63;13.20;;;3.40;99.90;;;;;;5152445;28;20212;-94
2022/01/22 11:04:13;;;;;;;229.43;12.93;;;3.40;99.90;;;;;;5152433;28;20288;-94
2022/01/22 11:06:50;;;;;;;202.73;10.53;;;3.40;99.90;;;;;;5137328;28;20340;-94
2022/01/22 11:09:42;;;;;;;138.03;8.37;;;3.40;99.90;;;;;;5135721;28;20248;-94
2022/01/22 11:12:16;;;;;;;211.23;10.87;;;3.50;99.90;;;;;;5135032;28;20206;-93
2022/01/22 11:14:47;;;;;;;145.87;9.80;;;3.50;99.90;;;;;;5133041;28;20315;-94
2022/01/22 11:17:20;;;;;;;224.50;11.97;;;3.50;99.90;;;;;;5132484;28;20206;-94
2022/01/22 11:19:53;;;;;;;344.63;17.03;;;3.50;99.90;;;;;;5133015;28;20224;-93
2022/01/22 11:22:29;;;;;;;238.57;12.07;;;3.50;99.90;;;;;;5133386;28;20198;-94
2022/01/22 11:25:01;;;;;;;278.70;15.63;;;3.40;99.90;;;;;;5132608;28;20201;-94
2022/01/22 11:27:36;;;;;;;314.53;16.03;;;3.50;99.90;;;;;;5114102;28;20664;-94
2022/01/22 11:30:10;;;;;;;190.70;9.57;;;3.40;99.90;;;;;;5132861;28;20229;-93
2022/01/22 11:32:46;;;;;;;446.80;22.47;;;3.30;99.90;;;;;;5133341;28;20237;-93
2022/01/22 11:35:23;;;;;;;450.63;19.27;;;3.30;99.90;;;;;;5132879;28;20202;-94
2022/01/22 11:38:00;;;;;;;247.47;14.40;;;3.30;99.90;;;;;;5131055;28;20248;-92
2022/01/22 11:40:36;;;;;;;282.87;13.60;;;3.30;99.90;;;;;;5146416;28;20621;-93
2022/01/22 11:43:12;;;;;;;288.60;13.90;;;3.20;99.90;;;;;;5150340;28;20206;-92
2022/01/22 11:45:50;;;;;;;441.80;18.30;;;3.20;99.90;;;;;;5133138;28;20206;-91
2022/01/22 11:48:27;;;;;;;355.40;15.13;;;3.20;99.90;;;;;;5103162;28;20252;-92
2022/01/22 11:51:19;;;;;;;407.67;17.60;;;3.20;99.90;;;;;;5114559;28;20235;-91
2022/01/22 11:53:56;;;;;;;359.37;16.17;;;3.20;99.90;;;;;;5105709;28;20669;-93
2022/01/22 11:56:30;;;;;;;270.17;13.40;;;3.20;99.90;;;;;;5098616;28;20676;-93
2022/01/22 11:59:36;;;;;;;289.70;12.60;;;3.20;99.90;;;;;;5099232;28;20578;-93
2022/01/22 12:02:08;;;;;;;403.47;20.57;;;3.10;99.90;;;;;;5099145;28;20267;-94
2022/01/22 12:05:04;;;;;;;530.77;21.80;;;3.10;99.90;;;;;;5099288;28;20226;-94
2022/01/22 12:07:37;;;;;;;392.67;16.33;;;3.00;99.90;;;;;;5098941;28;20199;-93
2022/01/22 12:16:18;;;;;;;334.90;16.03;;;2.90;99.90;;;;;;5118889;28;20198;-94
2022/01/22 12:18:58;;;;;;;398.53;16.20;;;2.90;99.90;;;;;;5118202;28;20305;-94
2022/01/22 12:21:35;;;;;;;414.47;14.97;;;3.00;99.90;;;;;;5096269;28;20198;-93
2022/01/22 12:24:10;;;;;;;249.33;12.30;;;2.90;99.90;;;;;;5133576;28;20240;-93
2022/01/22 12:26:46;;;;;;;361.33;16.00;;;2.90;99.90;;;;;;5132542;28;20237;-94
2022/01/22 12:29:39;;;;;;;376.80;14.97;;;2.90;99.90;;;;;;5135738;28;20200;-93
2022/01/22 12:32:38;;;;;;;377.93;13.87;;;2.90;99.90;;;;;;5116591;28;20206;-93
2022/01/22 12:35:15;;;;;;;395.87;14.43;;;3.00;99.90;;;;;;5125851;28;20213;-94
2022/01/22 12:38:00;;;;;;;488.47;19.30;;;3.00;99.90;;;;;;5118866;28;20210;-95
2022/01/22 12:40:35;;;;;;;450.13;17.87;;;2.90;99.90;;;;;;5118774;28;20250;-93
2022/01/22 12:45:58;;;;;;;159.53;9.20;;;2.90;99.90;;;;;;5118378;28;20202;-91
2022/01/22 12:48:33;;;;;;;315.27;12.37;;;3.00;99.90;;;;;;5117581;28;20547;-93
2022/01/22 12:51:10;;;;;;;540.93;20.87;;;2.90;99.90;;;;;;5118012;28;20261;-93
2022/01/22 12:53:48;;;;;;;363.43;14.87;;;2.90;99.90;;;;;;5118230;28;20214;-94
2022/01/22 12:56:49;;;;;;;371.57;14.93;;;2.90;99.90;;;;;;5118687;28;20619;-93
2022/01/22 12:59:21;;;;;;;329.03;13.20;;;2.90;99.90;;;;;;5119175;28;20205;-93
2022/01/22 13:01:52;;;;;;;368.73;16.87;;;2.80;99.90;;;;;;5134767;28;20190;-94
2022/01/22 13:04:27;;;;;;;460.47;17.03;;;2.80;99.90;;;;;;5133826;28;20198;-96
2022/01/22 13:07:00;;;;;;;202.83;10.17;;;2.70;99.90;;;;;;5132108;28;20198;-94
2022/01/22 13:09:54;;;;;;;418.57;13.90;;;2.70;99.90;;;;;;5132422;28;20221;-94
2022/01/22 13:12:27;;;;;;;330.40;15.07;;;2.70;99.90;;;;;;5137861;28;20190;-93
2022/01/22 13:14:59;;;;;;;299.33;12.07;;;2.60;99.90;;;;;;5138907;28;20194;-93
2022/01/22 13:17:31;;;;;;;389.70;15.40;;;2.60;99.90;;;;;;5138002;28;20249;-94
2022/01/22 13:20:06;;;;;;;290.63;10.03;;;2.60;99.90;;;;;;5136957;28;20206;-93
2022/01/22 13:22:40;;;;;;;250.17;9.70;;;2.60;99.90;;;;;;5130394;28;20225;-95
2022/01/22 13:25:12;;;;;;;183.53;7.10;;;2.50;99.90;;;;;;5101573;28;20220;-94
2022/01/22 13:27:45;;;;;;;129.50;7.13;;;2.60;99.90;;;;;;5118099;28;20596;-94
2022/01/22 13:30:17;;;;;;;170.00;7.93;;;2.50;99.90;;;;;;5101150;28;20226;-95
2022/01/22 13:32:54;;;;;;;263.83;10.43;;;2.50;99.90;;;;;;5117315;28;20643;-93
2022/01/22 13:35:35;;;;;;;286.97;11.07;;;2.40;99.90;;;;;;5117514;28;20583;-93
2022/01/22 13:49:29;;;;;;;401.73;18.30;;;2.40;99.90;;;;;;5116094;28;20679;-94
2022/01/22 13:52:07;;;;;;;379.73;14.00;;;2.40;99.90;;;;;;5116434;28;20241;-94
2022/01/22 13:54:40;;;;;;;351.23;13.83;;;2.40;99.90;;;;;;5116331;28;20205;-92
2022/01/22 13:57:12;;;;;;;161.33;8.00;;;2.30;99.90;;;;;;5115624;28;20201;-93
2022/01/22 13:59:45;;;;;;;343.57;13.00;;;2.40;99.90;;;;;;5114253;28;20231;-95
2022/01/22 14:02:34;;;;;;;451.07;18.27;;;2.40;99.90;;;;;;5117357;28;20202;-94
2022/01/22 14:05:08;;;;;;;459.83;16.03;;;2.40;99.90;;;;;;5116539;28;20719;-94
2022/01/22 14:07:45;;;;;;;377.53;13.70;;;2.50;99.90;;;;;;5116126;28;20202;-95
2022/01/22 14:10:19;;;;;;;371.70;15.47;;;2.50;99.90;;;;;;5098707;28;20259;-94
2022/01/22 14:12:54;;;;;;;458.37;18.97;;;2.50;99.90;;;;;;5116265;28;20210;-94
2022/01/22 14:15:39;;;;;;;236.47;10.57;;;2.50;99.90;;;;;;5115704;28;20288;-94
2022/01/22 14:18:19;;;;;;;352.43;13.23;;;2.50;99.90;;;;;;5115391;28;20198;-94
2022/01/22 14:20:53;;;;;;;166.37;6.03;;;2.50;99.90;;;;;;5116413;28;20757;-95
2022/01/22 14:23:39;;;;;;;169.13;6.40;;;2.50;99.90;;;;;;5100371;28;20251;-95
2022/01/22 14:26:11;;;;;;;126.60;5.47;;;2.40;99.90;;;;;;5116357;28;20237;-93
2022/01/22 14:28:45;;;;;;;160.67;6.17;;;2.30;99.90;;;;;;5113929;28;20620;-94
2022/01/22 14:31:28;;;;;;;247.23;8.13;;;2.30;99.90;;;;;;5098273;28;20253;-94
2022/01/22 14:34:00;;;;;;;192.27;7.10;;;2.30;99.90;;;;;;5115208;28;20741;-95
2022/01/22 14:36:34;;;;;;;180.17;8.10;;;2.20;99.90;;;;;;5114421;28;20238;-94
2022/01/22 14:39:25;;;;;;;194.17;13.63;;;2.20;99.90;;;;;;5115500;28;20539;-95
2022/01/22 14:44:49;;;;;;;134.40;6.33;;;2.20;99.90;;;;;;5115356;28;20222;-93
2022/01/22 14:47:22;;;;;;;109.03;4.53;;;2.20;99.90;;;;;;5114595;28;20236;-95
2022/01/22 14:49:55;;;;;;;241.90;10.80;;;2.20;99.90;;;;;;5098193;28;20202;-94
2022/01/22 14:52:28;;;;;;;144.90;6.40;;;2.30;99.90;;;;;;5097547;28;20234;-93
2022/01/22 14:55:05;;;;;;;163.07;7.33;;;2.20;99.90;;;;;;5115646;28;20572;-94
2022/01/22 14:57:37;;;;;;;354.40;13.53;;;2.20;99.90;;;;;;5114948;28;20198;-94
2022/01/22 15:00:11;;;;;;;315.67;13.53;;;2.20;99.90;;;;;;5115374;28;20224;-94
2022/01/22 15:02:42;;;;;;;275.53;13.93;;;2.20;99.90;;;;;;5116016;28;20222;-94
2022/01/22 15:05:15;;;;;;;243.90;12.17;;;2.20;99.90;;;;;;5115706;28;20214;-94
2022/01/22 15:07:48;;;;;;;384.60;13.87;;;2.20;99.90;;;;;;5115194;28;20735;-94
2022/01/22 15:10:24;;;;;;;320.10;15.80;;;2.20;99.90;;;;;;5115357;28;20218;-94
2022/01/22 15:12:55;;;;;;;202.47;8.13;;;2.30;99.90;;;;;;5097949;28;20295;-94
2022/01/22 15:15:35;;;;;;;341.07;20.33;;;2.30;99.90;;;;;;5115750;28;20683;-94
2022/01/22 15:18:11;;;;;;;364.70;14.03;;;2.20;99.90;;;;;;5114966;28;20205;-94
2022/01/22 15:20:43;;;;;;;388.43;21.73;;;2.30;99.90;;;;;;5116062;28;20256;-95
2022/01/22 15:23:13;;;;;;;440.60;17.53;;;2.30;99.90;;;;;;5098537;28;20664;-94
2022/01/22 15:25:47;;;;;;;321.43;12.67;;;2.20;99.90;;;;;;5116646;28;20229;-93
2022/01/22 15:28:21;;;;;;;404.43;16.57;;;2.20;99.90;;;;;;5119629;28;20624;-94
2022/01/22 15:30:53;;;;;;;282.30;10.90;;;2.20;99.90;;;;;;5120224;28;20265;-93
2022/01/22 15:33:36;;;;;;;431.67;15.27;;;2.20;99.90;;;;;;5135203;28;20190;-94
2022/01/22 15:36:07;;;;;;;248.27;9.20;;;2.20;99.90;;;;;;5141030;28;20190;-94
2022/01/22 15:38:38;;;;;;;285.80;10.97;;;2.20;99.90;;;;;;5130617;28;20199;-94
2022/01/22 15:41:11;;;;;;;221.43;9.10;;;2.20;99.90;;;;;;5112954;28;20306;-93
2022/01/22 15:43:43;;;;;;;201.30;7.33;;;2.20;99.90;;;;;;5106821;28;20230;-92
2022/01/22 15:46:14;;;;;;;286.67;10.67;;;2.20;99.90;;;;;;5100187;28;20262;-94
2022/01/22 15:48:46;;;;;;;343.97;13.27;;;2.20;99.90;;;;;;5097840;28;20202;-93
2022/01/22 15:51:18;;;;;;;431.83;15.57;;;2.20;99.90;;;;;;5107774;28;20202;-93
2022/01/22 15:53:49;;;;;;;386.90;15.60;;;2.20;99.90;;;;;;5120908;28;20202;-93
2022/01/22 15:56:22;;;;;;;324.07;15.73;;;2.10;99.90;;;;;;5119640;28;20241;-95
2022/01/22 15:58:53;;;;;;;387.70;13.90;;;2.10;99.90;;;;;;5119557;28;20281;-94
2022/01/22 16:01:24;;;;;;;389.00;13.90;;;2.10;99.90;;;;;;5118800;28;20271;-93
2022/01/22 16:03:57;;;;;;;458.53;15.43;;;2.10;99.90;;;;;;5118266;28;20680;-95
2022/01/22 16:06:35;;;;;;;214.73;10.00;;;2.10;99.90;;;;;;5118414;28;20238;-93
2022/01/22 16:09:10;;;;;;;334.23;13.33;;;2.10;99.90;;;;;;5118714;28;20209;-94
2022/01/22 16:12:03;;;;;;;344.57;12.93;;;2.20;99.90;;;;;;5118298;28;20226;-94
2022/01/22 16:14:50;;;;;;;128.27;6.33;;;2.10;99.90;;;;;;5118458;28;20210;-93
2022/01/22 16:17:23;;;;;;;457.10;17.83;;;2.10;99.90;;;;;;5117123;28;20281;-93
2022/01/22 16:19:55;;;;;;;413.97;17.10;;;2.10;99.90;;;;;;5123086;28;20202;-93
2022/01/22 16:22:27;;;;;;;277.27;10.47;;;2.10;99.90;;;;;;5117852;28;20206;-93
2022/01/22 16:24:59;;;;;;;215.83;10.13;;;2.10;99.90;;;;;;5117897;28;20202;-95
2022/01/22 16:27:34;;;;;;;221.67;9.40;;;2.10;99.90;;;;;;5117951;28;20210;-94
2022/01/22 16:30:05;;;;;;;264.83;12.83;;;2.10;99.90;;;;;;5118416;28;20197;-93
2022/01/22 16:32:37;;;;;;;332.10;14.87;;;2.10;99.90;;;;;;5122268;28;20254;-93
2022/01/22 16:35:09;;;;;;;258.90;11.73;;;2.20;99.90;;;;;;5124862;28;20233;-92
2022/01/22 16:37:41;;;;;;;240.90;10.90;;;2.20;99.90;;;;;;5117849;28;20206;-92
2022/01/22 16:40:19;;;;;;;358.13;15.67;;;2.20;99.90;;;;;;5118872;28;20253;-94